sensor_id;sensor_type;location;lat;lon;timestamp;pressure;altitude;pressure_sealevel;temperature;humidity
46778;BME280;32536;47.128;8.746;2022-07-22T00:00:06;92127.56;;;22.57;50.04
46778;BME280;32536;47.128;8.746;2022-07-22T00:02:34;92119.47;;;22.63;49.58
46778;BME280;32536;47.128;8.746;2022-07-22T00:05:01;92124.47;;;22.64;49.56
46778;BME280;32536;47.128;8.746;2022-07-22T00:07:29;92120.22;;;22.63;49.66
46778;BME280;32536;47.128;8.746;2022-07-22T00:09:55;92124.91;;;22.63;49.58
46778;BME280;32536;47.128;8.746;2022-07-22T00:12:22;92122.19;;;22.63;49.47
46778;BME280;32536;47.128;8.746;2022-07-22T00:14:49;92119.28;;;22.66;49.52
46778;BME280;32536;47.128;8.746;2022-07-22T00:17:16;92119.56;;;22.68;49.49
46778;BME280;32536;47.128;8.746;2022-07-22T00:19:43;92113.81;;;22.66;49.60
46778;BME280;32536;47.128;8.746;2022-07-22T00:22:10;92108.09;;;22.64;49.33
46778;BME280;32536;47.128;8.746;2022-07-22T00:24:36;92117.03;;;22.65;49.39
46778;BME280;32536;47.128;8.746;2022-07-22T00:27:03;92103.25;;;22.59;49.52
46778;BME280;32536;47.128;8.746;2022-07-22T00:29:30;92103.38;;;22.50;49.62
46778;BME280;32536;47.128;8.746;2022-07-22T00:31:57;92111.78;;;22.37;49.82
46778;BME280;32536;47.128;8.746;2022-07-22T00:34:24;92105.66;;;22.27;49.70
46778;BME280;32536;47.128;8.746;2022-07-22T00:36:50;92095.56;;;22.18;49.73
46778;BME280;32536;47.128;8.746;2022-07-22T00:39:17;92097.25;;;22.16;49.63
46778;BME280;32536;47.128;8.746;2022-07-22T00:41:44;92096.31;;;22.19;49.48
46778;BME280;32536;47.128;8.746;2022-07-22T00:44:17;92096.59;;;22.21;49.98
46778;BME280;32536;47.128;8.746;2022-07-22T00:46:44;92092.47;;;22.26;49.37
46778;BME280;32536;47.128;8.746;2022-07-22T00:49:11;92085.03;;;22.26;49.44
46778;BME280;32536;47.128;8.746;2022-07-22T00:51:38;92086.25;;;22.25;49.56
46778;BME280;32536;47.128;8.746;2022-07-22T00:54:05;92085.69;;;22.21;49.66
46778;BME280;32536;47.128;8.746;2022-07-22T00:56:32;92082.41;;;22.17;49.69
46778;BME280;32536;47.128;8.746;2022-07-22T00:59:02;92074.78;;;22.21;49.49
46778;BME280;32536;47.128;8.746;2022-07-22T01:01:30;92080.53;;;22.23;50.72
46778;BME280;32536;47.128;8.746;2022-07-22T01:03:57;92079.00;;;22.22;49.37
46778;BME280;32536;47.128;8.746;2022-07-22T01:06:24;92082.41;;;22.17;49.42
46778;BME280;32536;47.128;8.746;2022-07-22T01:08:51;92075.13;;;22.14;49.45
46778;BME280;32536;47.128;8.746;2022-07-22T01:11:19;92076.09;;;22.11;49.50
46778;BME280;32536;47.128;8.746;2022-07-22T01:13:47;92069.75;;;22.04;49.61
46778;BME280;32536;47.128;8.746;2022-07-22T01:16:16;92074.34;;;21.98;49.68
46778;BME280;32536;47.128;8.746;2022-07-22T01:18:44;92071.63;;;21.98;49.60
46778;BME280;32536;47.128;8.746;2022-07-22T01:21:11;92070.41;;;21.99;49.53
46778;BME280;32536;47.128;8.746;2022-07-22T01:23:40;92067.66;;;21.99;49.52
46778;BME280;32536;47.128;8.746;2022-07-22T01:26:07;92065.72;;;22.00;49.53
46778;BME280;32536;47.128;8.746;2022-07-22T01:28:34;92061.75;;;22.01;49.53
46778;BME280;32536;47.128;8.746;2022-07-22T01:31:01;92062.81;;;22.03;49.56
46778;BME280;32536;47.128;8.746;2022-07-22T01:33:27;92057.53;;;22.00;49.83
46778;BME280;32536;47.128;8.746;2022-07-22T01:35:54;92061.09;;;21.91;49.88
46778;BME280;32536;47.128;8.746;2022-07-22T01:38:21;92051.41;;;21.90;49.74
46778;BME280;32536;47.128;8.746;2022-07-22T01:40:48;92043.38;;;21.86;49.65
46778;BME280;32536;47.128;8.746;2022-07-22T01:43:15;92046.47;;;21.79;49.90
46778;BME280;32536;47.128;8.746;2022-07-22T01:45:44;92047.69;;;21.78;49.77
46778;BME280;32536;47.128;8.746;2022-07-22T01:48:12;92054.34;;;21.77;49.83
46778;BME280;32536;47.128;8.746;2022-07-22T01:50:40;92047.56;;;21.72;50.08
46778;BME280;32536;47.128;8.746;2022-07-22T01:53:09;92042.28;;;21.69;49.91
46778;BME280;32536;47.128;8.746;2022-07-22T01:55:36;92048.94;;;21.68;49.93
46778;BME280;32536;47.128;8.746;2022-07-22T01:58:04;92043.78;;;21.70;49.68
46778;BME280;32536;47.128;8.746;2022-07-22T02:00:32;92046.53;;;21.70;49.91
46778;BME280;32536;47.128;8.746;2022-07-22T02:02:59;92046.81;;;21.72;49.79
46778;BME280;32536;47.128;8.746;2022-07-22T02:05:26;92046.81;;;21.72;49.89
46778;BME280;32536;47.128;8.746;2022-07-22T02:07:53;92044.56;;;21.70;49.89
46778;BME280;32536;47.128;8.746;2022-07-22T02:10:24;92047.16;;;21.65;50.02
46778;BME280;32536;47.128;8.746;2022-07-22T02:12:51;92046.13;;;21.62;50.07
46778;BME280;32536;47.128;8.746;2022-07-22T02:15:18;92044.47;;;21.55;50.14
46778;BME280;32536;47.128;8.746;2022-07-22T02:17:44;92040.88;;;21.49;49.98
46778;BME280;32536;47.128;8.746;2022-07-22T02:20:11;92034.22;;;21.50;49.90
46778;BME280;32536;47.128;8.746;2022-07-22T02:22:38;92039.84;;;21.47;50.07
46778;BME280;32536;47.128;8.746;2022-07-22T02:25:05;92032.44;;;21.47;50.01
46778;BME280;32536;47.128;8.746;2022-07-22T02:27:32;92028.75;;;21.50;50.04
46778;BME280;32536;47.128;8.746;2022-07-22T02:29:59;92032.25;;;21.51;49.92
46778;BME280;32536;47.128;8.746;2022-07-22T02:32:26;92028.59;;;21.54;49.93
46778;BME280;32536;47.128;8.746;2022-07-22T02:34:52;92021.34;;;21.51;49.92
46778;BME280;32536;47.128;8.746;2022-07-22T02:37:19;92021.63;;;21.53;49.70
46778;BME280;32536;47.128;8.746;2022-07-22T02:39:46;92026.03;;;21.50;49.90
46778;BME280;32536;47.128;8.746;2022-07-22T02:42:13;92017.28;;;21.46;49.84
46778;BME280;32536;47.128;8.746;2022-07-22T02:44:40;92020.63;;;21.41;49.79
46778;BME280;32536;47.128;8.746;2022-07-22T02:47:07;92018.84;;;21.38;49.75
46778;BME280;32536;47.128;8.746;2022-07-22T02:49:34;92017.16;;;21.40;49.87
46778;BME280;32536;47.128;8.746;2022-07-22T02:52:01;92020.47;;;21.44;49.56
46778;BME280;32536;47.128;8.746;2022-07-22T02:54:28;92020.00;;;21.46;49.92
46778;BME280;32536;47.128;8.746;2022-07-22T02:56:54;92023.97;;;21.45;50.05
46778;BME280;32536;47.128;8.746;2022-07-22T02:59:21;92020.94;;;21.43;50.06
46778;BME280;32536;47.128;8.746;2022-07-22T03:01:48;92015.94;;;21.41;50.13
46778;BME280;32536;47.128;8.746;2022-07-22T03:04:15;92012.47;;;21.41;50.03
46778;BME280;32536;47.128;8.746;2022-07-22T03:06:41;92016.44;;;21.40;50.17
46778;BME280;32536;47.128;8.746;2022-07-22T03:09:08;92024.31;;;21.38;50.29
46778;BME280;32536;47.128;8.746;2022-07-22T03:11:35;92012.19;;;21.39;49.98
46778;BME280;32536;47.128;8.746;2022-07-22T03:14:02;92015.19;;;21.41;49.88
46778;BME280;32536;47.128;8.746;2022-07-22T03:16:28;92013.69;;;21.40;50.20
46778;BME280;32536;47.128;8.746;2022-07-22T03:18:55;92007.78;;;21.41;50.27
46778;BME280;32536;47.128;8.746;2022-07-22T03:21:22;92007.31;;;21.43;50.14
46778;BME280;32536;47.128;8.746;2022-07-22T03:23:49;92015.59;;;21.49;49.97
46778;BME280;32536;47.128;8.746;2022-07-22T03:26:34;92014.97;;;21.54;49.82
46778;BME280;32536;47.128;8.746;2022-07-22T03:29:01;92015.44;;;21.52;49.93
46778;BME280;32536;47.128;8.746;2022-07-22T03:31:28;92009.97;;;21.52;50.29
46778;BME280;32536;47.128;8.746;2022-07-22T03:33:55;92006.31;;;21.55;50.20
46778;BME280;32536;47.128;8.746;2022-07-22T03:36:21;92016.78;;;21.57;50.19
46778;BME280;32536;47.128;8.746;2022-07-22T03:38:48;92009.81;;;21.56;50.08
46778;BME280;32536;47.128;8.746;2022-07-22T03:41:15;92018.28;;;21.58;49.92
46778;BME280;32536;47.128;8.746;2022-07-22T03:43:42;92012.69;;;21.52;49.80
46778;BME280;32536;47.128;8.746;2022-07-22T03:46:09;92013.63;;;21.49;49.74
46778;BME280;32536;47.128;8.746;2022-07-22T03:48:35;92013.34;;;21.47;49.56
46778;BME280;32536;47.128;8.746;2022-07-22T03:51:02;92019.53;;;21.48;49.81
46778;BME280;32536;47.128;8.746;2022-07-22T03:53:29;92015.78;;;21.45;50.05
46778;BME280;32536;47.128;8.746;2022-07-22T03:55:59;92020.94;;;21.43;50.16
46778;BME280;32536;47.128;8.746;2022-07-22T03:58:26;92015.19;;;21.41;49.84
46778;BME280;32536;47.128;8.746;2022-07-22T04:00:54;92022.16;;;21.42;50.31
46778;BME280;32536;47.128;8.746;2022-07-22T04:03:21;92021.09;;;21.39;50.35
46778;BME280;32536;47.128;8.746;2022-07-22T04:05:48;92014.31;;;21.35;50.06
46778;BME280;32536;47.128;8.746;2022-07-22T04:08:16;92005.56;;;21.31;50.20
46778;BME280;32536;47.128;8.746;2022-07-22T04:10:44;92010.84;;;21.34;49.80
46778;BME280;32536;47.128;8.746;2022-07-22T04:13:11;92015.66;;;21.39;49.97
46778;BME280;32536;47.128;8.746;2022-07-22T04:15:38;92002.03;;;21.39;50.09
46778;BME280;32536;47.128;8.746;2022-07-22T04:18:04;92004.00;;;21.39;50.18
46778;BME280;32536;47.128;8.746;2022-07-22T04:20:31;91995.38;;;21.40;50.34
46778;BME280;32536;47.128;8.746;2022-07-22T04:22:58;92001.56;;;21.41;50.31
46778;BME280;32536;47.128;8.746;2022-07-22T04:25:25;91994.44;;;21.43;50.28
46778;BME280;32536;47.128;8.746;2022-07-22T04:27:52;91989.75;;;21.44;50.25
46778;BME280;32536;47.128;8.746;2022-07-22T04:30:18;91992.47;;;21.44;50.26
46778;BME280;32536;47.128;8.746;2022-07-22T04:32:45;91986.72;;;21.42;50.52
46778;BME280;32536;47.128;8.746;2022-07-22T04:35:12;91991.72;;;21.43;50.54
46778;BME280;32536;47.128;8.746;2022-07-22T04:37:39;91988.34;;;21.49;50.72
46778;BME280;32536;47.128;8.746;2022-07-22T04:40:06;91998.13;;;21.55;50.54
46778;BME280;32536;47.128;8.746;2022-07-22T04:42:33;91995.38;;;21.65;50.38
46778;BME280;32536;47.128;8.746;2022-07-22T04:45:00;91990.78;;;21.71;50.54
46778;BME280;32536;47.128;8.746;2022-07-22T04:47:27;91993.81;;;21.73;50.60
46778;BME280;32536;47.128;8.746;2022-07-22T04:49:55;91991.63;;;21.77;50.35
46778;BME280;32536;47.128;8.746;2022-07-22T04:52:22;91994.94;;;21.81;50.28
46778;BME280;32536;47.128;8.746;2022-07-22T04:54:48;91984.50;;;21.80;50.29
46778;BME280;32536;47.128;8.746;2022-07-22T04:57:15;91985.72;;;21.79;50.41
46778;BME280;32536;47.128;8.746;2022-07-22T04:59:42;91991.53;;;21.71;50.60
46778;BME280;32536;47.128;8.746;2022-07-22T05:02:09;91979.75;;;21.65;50.52
46778;BME280;32536;47.128;8.746;2022-07-22T05:04:36;91987.94;;;21.65;50.37
46778;BME280;32536;47.128;8.746;2022-07-22T05:07:02;91977.03;;;21.65;50.44
46778;BME280;32536;47.128;8.746;2022-07-22T05:09:29;91983.25;;;21.66;50.50
46778;BME280;32536;47.128;8.746;2022-07-22T05:11:56;91985.22;;;21.65;50.40
46778;BME280;32536;47.128;8.746;2022-07-22T05:14:23;91987.66;;;21.63;50.46
46778;BME280;32536;47.128;8.746;2022-07-22T05:16:49;91979.50;;;21.63;50.53
46778;BME280;32536;47.128;8.746;2022-07-22T05:19:16;91988.41;;;21.64;50.48
46778;BME280;32536;47.128;8.746;2022-07-22T05:21:43;91977.69;;;21.60;50.48
46778;BME280;32536;47.128;8.746;2022-07-22T05:24:10;91982.22;;;21.63;50.55
46778;BME280;32536;47.128;8.746;2022-07-22T05:26:37;91975.81;;;21.66;50.43
46778;BME280;32536;47.128;8.746;2022-07-22T05:29:04;91979.13;;;21.70;50.35
46778;BME280;32536;47.128;8.746;2022-07-22T05:31:31;91983.34;;;21.71;50.58
46778;BME280;32536;47.128;8.746;2022-07-22T05:33:58;91980.63;;;21.71;50.49
46778;BME280;32536;47.128;8.746;2022-07-22T05:36:25;91974.41;;;21.71;50.78
46778;BME280;32536;47.128;8.746;2022-07-22T05:38:51;91976.59;;;21.67;51.02
46778;BME280;32536;47.128;8.746;2022-07-22T05:41:18;91977.03;;;21.65;51.24
46778;BME280;32536;47.128;8.746;2022-07-22T05:43:45;91973.00;;;21.61;51.53
46778;BME280;32536;47.128;8.746;2022-07-22T05:46:12;91974.03;;;21.63;51.26
46778;BME280;32536;47.128;8.746;2022-07-22T05:48:38;91976.28;;;21.65;51.62
46778;BME280;32536;47.128;8.746;2022-07-22T05:51:13;91977.81;;;21.66;52.64
46778;BME280;32536;47.128;8.746;2022-07-22T05:53:42;91973.69;;;21.70;51.32
46778;BME280;32536;47.128;8.746;2022-07-22T05:56:09;91981.03;;;21.79;51.20
46778;BME280;32536;47.128;8.746;2022-07-22T05:58:38;91978.19;;;21.88;51.17
46778;BME280;32536;47.128;8.746;2022-07-22T06:01:05;91978.31;;;21.94;51.47
46778;BME280;32536;47.128;8.746;2022-07-22T06:03:32;91973.41;;;21.98;51.56
46778;BME280;32536;47.128;8.746;2022-07-22T06:06:00;91967.50;;;22.00;51.80
46778;BME280;32536;47.128;8.746;2022-07-22T06:08:28;91975.50;;;22.03;51.85
46778;BME280;32536;47.128;8.746;2022-07-22T06:10:56;91969.09;;;22.06;51.96
46778;BME280;32536;47.128;8.746;2022-07-22T06:13:23;91974.47;;;22.16;51.72
46778;BME280;32536;47.128;8.746;2022-07-22T06:15:51;91960.91;;;22.21;51.68
46778;BME280;32536;47.128;8.746;2022-07-22T06:18:18;91967.50;;;22.30;51.73
46778;BME280;32536;47.128;8.746;2022-07-22T06:20:45;91968.34;;;22.36;51.88
46778;BME280;32536;47.128;8.746;2022-07-22T06:23:12;91969.97;;;22.43;51.68
46778;BME280;32536;47.128;8.746;2022-07-22T06:25:39;91966.09;;;22.49;51.80
46778;BME280;32536;47.128;8.746;2022-07-22T06:28:05;91968.63;;;22.53;51.87
46778;BME280;32536;47.128;8.746;2022-07-22T06:30:32;91967.97;;;22.58;51.75
46778;BME280;32536;47.128;8.746;2022-07-22T06:32:59;91964.84;;;22.65;51.71
46778;BME280;32536;47.128;8.746;2022-07-22T06:35:26;91964.75;;;22.75;51.70
46778;BME280;32536;47.128;8.746;2022-07-22T06:37:53;91960.88;;;22.81;51.60
46778;BME280;32536;47.128;8.746;2022-07-22T06:40:20;91972.44;;;22.91;51.58
46778;BME280;32536;47.128;8.746;2022-07-22T06:42:47;91965.53;;;22.96;51.65
46778;BME280;32536;47.128;8.746;2022-07-22T06:45:13;91961.94;;;23.05;51.30
46778;BME280;32536;47.128;8.746;2022-07-22T06:47:40;91969.28;;;23.13;51.37
46778;BME280;32536;47.128;8.746;2022-07-22T06:50:08;91964.72;;;23.25;51.35
46778;BME280;32536;47.128;8.746;2022-07-22T06:52:39;91966.63;;;23.40;51.22
46778;BME280;32536;47.128;8.746;2022-07-22T06:55:07;91967.03;;;23.53;51.13
46778;BME280;32536;47.128;8.746;2022-07-22T06:57:35;91966.41;;;23.64;51.05
46778;BME280;32536;47.128;8.746;2022-07-22T07:00:04;91967.50;;;23.72;51.08
46778;BME280;32536;47.128;8.746;2022-07-22T07:02:35;91965.16;;;23.86;51.04
46778;BME280;32536;47.128;8.746;2022-07-22T07:05:02;91960.50;;;23.92;50.94
46778;BME280;32536;47.128;8.746;2022-07-22T07:07:29;91962.84;;;23.99;51.28
46778;BME280;32536;47.128;8.746;2022-07-22T07:09:56;91959.72;;;24.12;51.39
46778;BME280;32536;47.128;8.746;2022-07-22T07:12:23;91960.63;;;24.29;51.39
46778;BME280;32536;47.128;8.746;2022-07-22T07:14:50;91954.75;;;24.42;51.10
46778;BME280;32536;47.128;8.746;2022-07-22T07:17:17;91959.09;;;24.55;51.24
46778;BME280;32536;47.128;8.746;2022-07-22T07:19:52;91953.44;;;24.64;50.89
46778;BME280;32536;47.128;8.746;2022-07-22T07:22:19;91955.53;;;24.75;50.99
46778;BME280;32536;47.128;8.746;2022-07-22T07:24:46;91955.59;;;24.86;51.19
46778;BME280;32536;47.128;8.746;2022-07-22T07:27:13;91951.19;;;24.94;50.93
46778;BME280;32536;47.128;8.746;2022-07-22T07:29:39;91954.19;;;25.02;51.06
46778;BME280;32536;47.128;8.746;2022-07-22T07:32:06;91952.00;;;25.06;50.98
46778;BME280;32536;47.128;8.746;2022-07-22T07:34:33;91951.00;;;25.09;51.11
46778;BME280;32536;47.128;8.746;2022-07-22T07:37:00;91955.28;;;25.16;50.81
46778;BME280;32536;47.128;8.746;2022-07-22T07:39:26;91958.53;;;25.20;51.17
46778;BME280;32536;47.128;8.746;2022-07-22T07:41:53;91946.59;;;25.23;50.89
46778;BME280;32536;47.128;8.746;2022-07-22T07:44:43;91950.13;;;25.30;50.84
46778;BME280;32536;47.128;8.746;2022-07-22T07:47:10;91950.84;;;25.30;50.87
46778;BME280;32536;47.128;8.746;2022-07-22T07:49:38;91945.38;;;25.30;50.79
46778;BME280;32536;47.128;8.746;2022-07-22T07:52:05;91944.94;;;25.37;50.72
46778;BME280;32536;47.128;8.746;2022-07-22T07:54:32;91945.25;;;25.45;50.75
46778;BME280;32536;47.128;8.746;2022-07-22T07:56:59;91943.50;;;25.48;50.59
46778;BME280;32536;47.128;8.746;2022-07-22T07:59:26;91940.75;;;25.53;50.82
46778;BME280;32536;47.128;8.746;2022-07-22T08:01:52;91940.78;;;25.59;50.44
46778;BME280;32536;47.128;8.746;2022-07-22T08:04:19;91941.06;;;25.67;50.63
46778;BME280;32536;47.128;8.746;2022-07-22T08:06:46;91941.59;;;25.77;50.54
46778;BME280;32536;47.128;8.746;2022-07-22T08:09:13;91948.34;;;25.81;50.28
46778;BME280;32536;47.128;8.746;2022-07-22T08:11:39;91939.13;;;25.90;50.09
46778;BME280;32536;47.128;8.746;2022-07-22T08:14:06;91941.63;;;25.94;50.48
46778;BME280;32536;47.128;8.746;2022-07-22T08:16:33;91939.41;;;25.98;50.17
46778;BME280;32536;47.128;8.746;2022-07-22T08:19:00;91924.19;;;25.97;50.24
46778;BME280;32536;47.128;8.746;2022-07-22T08:21:26;91931.19;;;25.98;50.54
46778;BME280;32536;47.128;8.746;2022-07-22T08:23:53;91935.41;;;26.04;50.39
46778;BME280;32536;47.128;8.746;2022-07-22T08:26:20;91927.22;;;26.10;50.51
46778;BME280;32536;47.128;8.746;2022-07-22T08:28:47;91923.47;;;26.13;50.25
46778;BME280;32536;47.128;8.746;2022-07-22T08:31:14;91923.50;;;26.19;50.13
46778;BME280;32536;47.128;8.746;2022-07-22T08:33:41;91919.50;;;26.26;50.27
46778;BME280;32536;47.128;8.746;2022-07-22T08:36:08;91920.97;;;26.27;49.99
46778;BME280;32536;47.128;8.746;2022-07-22T08:38:35;91916.53;;;26.29;50.33
46778;BME280;32536;47.128;8.746;2022-07-22T08:41:04;91918.00;;;26.36;50.03
46778;BME280;32536;47.128;8.746;2022-07-22T08:43:34;91920.00;;;26.41;50.11
46778;BME280;32536;47.128;8.746;2022-07-22T08:46:02;91910.00;;;26.49;50.11
46778;BME280;32536;47.128;8.746;2022-07-22T08:48:29;91909.50;;;26.57;50.27
46778;BME280;32536;47.128;8.746;2022-07-22T08:50:56;91907.00;;;26.64;50.21
46778;BME280;32536;47.128;8.746;2022-07-22T08:53:23;91906.75;;;26.68;50.06
46778;BME280;32536;47.128;8.746;2022-07-22T08:55:50;91905.53;;;26.75;50.37
46778;BME280;32536;47.128;8.746;2022-07-22T08:58:16;91904.03;;;26.79;50.12
46778;BME280;32536;47.128;8.746;2022-07-22T09:00:44;91901.50;;;26.81;50.27
46778;BME280;32536;47.128;8.746;2022-07-22T09:03:21;91896.00;;;26.87;49.78
46778;BME280;32536;47.128;8.746;2022-07-22T09:05:51;91902.47;;;27.01;50.20
46778;BME280;32536;47.128;8.746;2022-07-22T09:08:20;91904.69;;;27.14;50.24
46778;BME280;32536;47.128;8.746;2022-07-22T09:10:48;91895.88;;;27.32;50.60
46778;BME280;32536;47.128;8.746;2022-07-22T09:13:15;91901.56;;;27.52;50.17
46778;BME280;32536;47.128;8.746;2022-07-22T09:15:48;91890.75;;;27.65;49.49
46778;BME280;32536;47.128;8.746;2022-07-22T09:18:16;91894.69;;;27.75;49.32
46778;BME280;32536;47.128;8.746;2022-07-22T09:20:43;91898.94;;;27.82;49.43
46778;BME280;32536;47.128;8.746;2022-07-22T09:23:18;91903.41;;;27.85;48.62
46778;BME280;32536;47.128;8.746;2022-07-22T09:25:48;91904.09;;;27.91;48.80
46778;BME280;32536;47.128;8.746;2022-07-22T09:28:18;91901.34;;;27.91;48.74
46778;BME280;32536;47.128;8.746;2022-07-22T09:30:52;91907.13;;;27.88;48.25
46778;BME280;32536;47.128;8.746;2022-07-22T09:33:20;91907.13;;;27.88;48.55
46778;BME280;32536;47.128;8.746;2022-07-22T09:35:48;91917.94;;;27.86;48.62
46778;BME280;32536;47.128;8.746;2022-07-22T09:38:17;91911.44;;;27.83;48.60
46778;BME280;32536;47.128;8.746;2022-07-22T09:40:47;91900.91;;;27.82;48.62
46778;BME280;32536;47.128;8.746;2022-07-22T09:43:16;91904.44;;;27.76;48.74
46778;BME280;32536;47.128;8.746;2022-07-22T09:45:47;91902.44;;;27.77;48.57
46778;BME280;32536;47.128;8.746;2022-07-22T09:48:17;91899.19;;;27.78;48.67
46778;BME280;32536;47.128;8.746;2022-07-22T09:50:46;91901.69;;;27.82;48.64
46778;BME280;32536;47.128;8.746;2022-07-22T09:53:14;91899.91;;;27.85;48.38
46778;BME280;32536;47.128;8.746;2022-07-22T09:55:42;91900.13;;;27.87;48.49
46778;BME280;32536;47.128;8.746;2022-07-22T09:58:09;91901.13;;;27.89;48.53
46778;BME280;32536;47.128;8.746;2022-07-22T10:00:39;91903.13;;;27.89;48.43
46778;BME280;32536;47.128;8.746;2022-07-22T10:03:08;91908.13;;;27.90;48.44
46778;BME280;32536;47.128;8.746;2022-07-22T10:05:40;91909.63;;;27.91;48.40
46778;BME280;32536;47.128;8.746;2022-07-22T10:08:08;91903.63;;;27.93;48.26
46778;BME280;32536;47.128;8.746;2022-07-22T10:10:37;91900.88;;;27.93;48.31
46778;BME280;32536;47.128;8.746;2022-07-22T10:13:06;91906.38;;;27.93;48.40
46778;BME280;32536;47.128;8.746;2022-07-22T10:15:34;91909.63;;;27.91;48.27
46778;BME280;32536;47.128;8.746;2022-07-22T10:18:07;91907.38;;;27.90;47.79
46778;BME280;32536;47.128;8.746;2022-07-22T10:20:40;91906.66;;;27.89;47.89
46778;BME280;32536;47.128;8.746;2022-07-22T10:23:08;91912.41;;;27.86;48.11
46778;BME280;32536;47.128;8.746;2022-07-22T10:25:56;91907.19;;;27.82;48.15
46778;BME280;32536;47.128;8.746;2022-07-22T10:28:36;91908.44;;;27.81;48.19
46778;BME280;32536;47.128;8.746;2022-07-22T10:33:55;91905.16;;;27.88;48.03
46778;BME280;32536;47.128;8.746;2022-07-22T10:39:08;91910.41;;;27.86;47.42
46778;BME280;32536;47.128;8.746;2022-07-22T10:41:41;91913.88;;;27.92;48.06
46778;BME280;32536;47.128;8.746;2022-07-22T10:44:09;91916.34;;;27.96;47.96
46778;BME280;32536;47.128;8.746;2022-07-22T10:46:54;91911.59;;;27.96;47.41
46778;BME280;32536;47.128;8.746;2022-07-22T10:49:25;91907.31;;;28.01;47.66
46778;BME280;32536;47.128;8.746;2022-07-22T10:57:42;91904.31;;;28.05;47.83
46778;BME280;32536;47.128;8.746;2022-07-22T11:00:09;91907.81;;;28.05;47.79
46778;BME280;32536;47.128;8.746;2022-07-22T11:02:37;91903.06;;;28.06;47.62
46778;BME280;32536;47.128;8.746;2022-07-22T11:05:04;91911.81;;;28.04;47.73
46778;BME280;32536;47.128;8.746;2022-07-22T11:07:32;91906.78;;;28.08;47.68
46778;BME280;32536;47.128;8.746;2022-07-22T11:10:15;91913.75;;;28.15;46.91
46778;BME280;32536;47.128;8.746;2022-07-22T11:12:43;91911.94;;;28.23;47.47
46778;BME280;32536;47.128;8.746;2022-07-22T11:15:11;91910.94;;;28.26;47.32
46778;BME280;32536;47.128;8.746;2022-07-22T11:17:38;91918.91;;;28.30;47.35
46778;BME280;32536;47.128;8.746;2022-07-22T11:20:09;91906.88;;;28.33;47.40
46778;BME280;32536;47.128;8.746;2022-07-22T11:22:38;91903.31;;;28.38;47.30
46778;BME280;32536;47.128;8.746;2022-07-22T11:25:09;91902.53;;;28.43;47.30
46778;BME280;32536;47.128;8.746;2022-07-22T11:27:37;91903.00;;;28.48;47.25
46778;BME280;32536;47.128;8.746;2022-07-22T11:30:04;91898.44;;;28.50;47.06
46778;BME280;32536;47.128;8.746;2022-07-22T11:32:33;91895.75;;;28.44;47.24
46778;BME280;32536;47.128;8.746;2022-07-22T11:35:11;91895.81;;;28.39;47.09
46778;BME280;32536;47.128;8.746;2022-07-22T11:37:38;91896.59;;;28.34;47.10
46778;BME280;32536;47.128;8.746;2022-07-22T11:40:08;91895.38;;;28.29;47.05
46778;BME280;32536;47.128;8.746;2022-07-22T11:42:35;91894.13;;;28.30;47.05
46778;BME280;32536;47.128;8.746;2022-07-22T11:45:03;91893.38;;;28.30;47.10
46778;BME280;32536;47.128;8.746;2022-07-22T11:47:31;91887.81;;;28.35;47.08
46778;BME280;32536;47.128;8.746;2022-07-22T11:49:58;91876.47;;;28.44;46.70
46778;BME280;32536;47.128;8.746;2022-07-22T11:52:24;91878.88;;;28.54;46.54
46778;BME280;32536;47.128;8.746;2022-07-22T11:54:51;91878.31;;;28.61;46.58
46778;BME280;32536;47.128;8.746;2022-07-22T11:57:18;91880.34;;;28.60;46.51
46778;BME280;32536;47.128;8.746;2022-07-22T11:59:45;91872.59;;;28.59;46.20
46778;BME280;32536;47.128;8.746;2022-07-22T12:02:12;91876.84;;;28.60;46.27
46778;BME280;32536;47.128;8.746;2022-07-22T12:04:40;91867.31;;;28.61;46.34
46778;BME280;32536;47.128;8.746;2022-07-22T12:07:10;91867.53;;;28.63;46.02
46778;BME280;32536;47.128;8.746;2022-07-22T12:09:38;91868.00;;;28.67;46.30
46778;BME280;32536;47.128;8.746;2022-07-22T12:12:07;91865.97;;;28.73;46.40
46778;BME280;32536;47.128;8.746;2022-07-22T12:14:34;91864.19;;;28.76;46.26
46778;BME280;32536;47.128;8.746;2022-07-22T12:17:06;91863.91;;;28.80;45.43
46778;BME280;32536;47.128;8.746;2022-07-22T12:19:39;91864.81;;;28.88;46.10
46778;BME280;32536;47.128;8.746;2022-07-22T12:22:11;91863.78;;;28.91;45.23
46778;BME280;32536;47.128;8.746;2022-07-22T12:24:46;91857.19;;;29.00;45.64
46778;BME280;32536;47.128;8.746;2022-07-22T12:27:33;91857.56;;;29.10;45.93
46778;BME280;32536;47.128;8.746;2022-07-22T12:30:11;91854.66;;;29.21;43.71
46778;BME280;32536;47.128;8.746;2022-07-22T12:32:46;91852.03;;;29.34;45.22
46778;BME280;32536;47.128;8.746;2022-07-22T12:35:14;91843.16;;;29.42;45.71
46778;BME280;32536;47.128;8.746;2022-07-22T12:37:44;91850.34;;;29.50;45.68
46778;BME280;32536;47.128;8.746;2022-07-22T12:40:17;91850.66;;;29.47;44.01
46778;BME280;32536;47.128;8.746;2022-07-22T12:42:59;91846.84;;;29.50;45.22
46778;BME280;32536;47.128;8.746;2022-07-22T12:45:27;91847.22;;;29.60;45.61
46778;BME280;32536;47.128;8.746;2022-07-22T12:50:40;91847.50;;;29.75;44.92
46778;BME280;32536;47.128;8.746;2022-07-22T12:53:12;91844.88;;;29.83;44.77
46778;BME280;32536;47.128;8.746;2022-07-22T12:55:45;91854.81;;;29.92;44.01
46778;BME280;32536;47.128;8.746;2022-07-22T12:58:15;91851.38;;;30.05;45.07
46778;BME280;32536;47.128;8.746;2022-07-22T13:00:48;91847.47;;;30.13;44.63
46778;BME280;32536;47.128;8.746;2022-07-22T13:03:17;91844.09;;;30.21;44.61
46778;BME280;32536;47.128;8.746;2022-07-22T13:05:53;91851.84;;;30.22;43.38
46778;BME280;32536;47.128;8.746;2022-07-22T13:08:23;91854.53;;;30.28;44.55
46778;BME280;32536;47.128;8.746;2022-07-22T13:10:51;91842.63;;;30.33;44.79
46778;BME280;32536;47.128;8.746;2022-07-22T13:13:19;91845.31;;;30.39;43.82
46778;BME280;32536;47.128;8.746;2022-07-22T13:15:47;91844.16;;;30.47;44.19
46778;BME280;32536;47.128;8.746;2022-07-22T13:18:15;91850.38;;;30.54;44.20